Time;durP1;ratioP1;P1;durP2;ratioP2;P2;SDS_P1;SDS_P2;PMS_P1;PMS_P2;Temp;Humidity;BMP_temperature;BMP_pressure;BME280_temperature;BME280_humidity;BME280_pressure;Samples;Min_cycle;Max_cycle;Signal;HPM_P1;HPM_P2
2022/02/24 00:00:58;;;;;;;6.63;1.67;;;23.80;91.40;;;;;;5052914;28;20190;-76
2022/02/24 00:03:27;;;;;;;6.37;2.20;;;24.10;91.60;;;;;;5052955;28;20176;-74
2022/02/24 00:05:56;;;;;;;6.70;1.87;;;24.20;90.80;;;;;;5051229;28;20214;-76
2022/02/24 00:08:23;;;;;;;11.53;2.20;;;24.30;90.60;;;;;;5054069;28;20198;-74
2022/02/24 00:10:51;;;;;;;10.20;2.40;;;24.10;91.00;;;;;;5053683;28;20208;-73
2022/02/24 00:13:18;;;;;;;11.13;2.50;;;24.10;90.60;;;;;;5052258;28;20187;-74
2022/02/24 00:15:46;;;;;;;12.33;2.60;;;24.20;91.20;;;;;;5050998;28;20266;-74
2022/02/24 00:18:13;;;;;;;10.73;2.53;;;24.30;91.10;;;;;;5052431;28;20558;-74
2022/02/24 00:20:40;;;;;;;11.37;2.43;;;24.30;90.80;;;;;;5053747;28;20630;-80
2022/02/24 00:23:08;;;;;;;7.90;2.07;;;24.30;90.70;;;;;;5053038;28;20179;-76
2022/02/24 00:25:35;;;;;;;13.07;2.87;;;24.30;90.20;;;;;;5054165;28;20501;-82
2022/02/24 00:28:02;;;;;;;13.07;2.30;;;24.30;90.80;;;;;;5051465;28;20188;-77
2022/02/24 00:30:30;;;;;;;12.17;2.70;;;24.50;90.60;;;;;;5053305;28;20243;-80
2022/02/24 00:32:57;;;;;;;13.43;2.97;;;24.50;90.40;;;;;;5050526;28;20664;-81
2022/02/24 00:35:24;;;;;;;11.97;2.97;;;24.60;90.30;;;;;;5051929;28;20176;-81
2022/02/24 00:37:52;;;;;;;9.57;2.00;;;24.70;90.60;;;;;;5050617;28;20180;-83
2022/02/24 00:40:19;;;;;;;12.27;2.90;;;24.50;89.20;;;;;;5052422;28;20184;-76
2022/02/24 00:42:47;;;;;;;11.10;2.60;;;24.60;90.00;;;;;;5051051;28;20171;-79
2022/02/24 00:45:14;;;;;;;12.57;3.13;;;24.80;90.30;;;;;;5050029;28;20184;-77
2022/02/24 00:47:41;;;;;;;11.10;2.20;;;24.80;90.00;;;;;;5052499;28;20681;-86
2022/02/24 00:50:09;;;;;;;10.40;2.50;;;24.90;89.30;;;;;;5049282;28;20208;-82
2022/02/24 00:52:37;;;;;;;10.23;2.27;;;25.10;88.80;;;;;;5050588;28;20234;-86
2022/02/24 00:55:05;;;;;;;7.77;1.93;;;25.30;88.50;;;;;;5051190;28;20183;-84
2022/02/24 00:57:32;;;;;;;6.93;2.13;;;25.30;87.70;;;;;;5053214;28;20514;-84
2022/02/24 00:59:59;;;;;;;7.60;1.90;;;25.30;87.20;;;;;;5051741;28;20657;-87
2022/02/24 01:02:27;;;;;;;9.20;2.80;;;25.50;86.90;;;;;;5052988;28;20184;-83
2022/02/24 01:04:54;;;;;;;11.47;2.60;;;25.50;86.20;;;;;;5052431;28;20642;-78
2022/02/24 01:07:21;;;;;;;7.30;2.40;;;25.80;85.90;;;;;;5052702;28;20258;-81
2022/02/24 01:09:49;;;;;;;12.47;2.83;;;25.90;86.00;;;;;;5052014;28;20208;-84
2022/02/24 01:12:16;;;;;;;10.07;2.37;;;26.10;85.90;;;;;;5053191;28;20191;-86
2022/02/24 01:14:43;;;;;;;16.17;3.90;;;26.00;85.40;;;;;;5052139;28;20207;-83
2022/02/24 01:17:11;;;;;;;8.03;2.37;;;25.90;85.80;;;;;;5050805;28;20214;-76
2022/02/24 01:19:38;;;;;;;5.23;1.93;;;26.30;85.40;;;;;;5053024;28;20542;-76
2022/02/24 01:22:05;;;;;;;14.10;2.50;;;26.10;84.50;;;;;;5051584;28;20172;-81
2022/02/24 01:24:33;;;;;;;9.20;2.43;;;26.20;84.50;;;;;;5048272;28;20187;-82
2022/02/24 01:27:00;;;;;;;9.53;2.50;;;26.00;83.20;;;;;;5051373;28;20176;-81
2022/02/24 01:29:28;;;;;;;8.97;2.77;;;26.20;83.90;;;;;;5047280;28;20270;-78
2022/02/24 01:31:55;;;;;;;17.37;3.03;;;26.40;84.20;;;;;;5051748;28;20183;-77
2022/02/24 01:34:26;;;;;;;15.57;2.80;;;26.30;82.50;;;;;;5053056;28;20618;-75
2022/02/24 01:36:54;;;;;;;9.27;2.27;;;26.00;84.00;;;;;;5048130;28;20646;-84
2022/02/24 01:39:22;;;;;;;11.63;2.33;;;26.30;84.60;;;;;;5052987;28;20540;-75
2022/02/24 01:41:49;;;;;;;7.87;2.67;;;26.40;84.30;;;;;;5044545;28;20188;-75
2022/02/24 01:44:16;;;;;;;9.47;2.50;;;26.60;84.30;;;;;;5052067;28;20187;-80
2022/02/24 01:46:44;;;;;;;12.93;2.73;;;26.80;83.80;;;;;;5051728;28;20224;-80
2022/02/24 01:49:11;;;;;;;13.87;2.80;;;26.60;81.90;;;;;;5048174;28;20661;-82
2022/02/24 01:51:42;;;;;;;10.77;2.60;;;26.60;80.70;;;;;;5050119;28;20215;-80
2022/02/24 01:54:09;;;;;;;10.53;2.80;;;26.90;80.70;;;;;;5067663;28;20669;-76
2022/02/24 01:56:38;;;;;;;9.33;2.30;;;27.20;80.80;;;;;;5051627;28;20181;-81
2022/02/24 01:59:06;;;;;;;9.83;2.37;;;27.00;79.10;;;;;;5050094;28;21077;-79
2022/02/24 02:01:33;;;;;;;10.37;2.63;;;27.10;79.80;;;;;;5051558;28;20629;-83
2022/02/24 02:04:01;;;;;;;9.17;2.87;;;27.10;79.40;;;;;;5052017;28;20210;-84
2022/02/24 02:06:29;;;;;;;10.43;2.27;;;27.30;77.90;;;;;;5051918;28;20203;-83
2022/02/24 02:08:56;;;;;;;12.43;2.23;;;26.80;79.30;;;;;;5051281;28;20180;-82
2022/02/24 02:11:23;;;;;;;12.73;2.80;;;27.00;78.80;;;;;;5050864;28;20217;-81
2022/02/24 02:13:51;;;;;;;16.87;2.93;;;27.30;79.20;;;;;;5052068;28;20180;-81
2022/02/24 02:16:18;;;;;;;16.07;3.03;;;27.60;78.60;;;;;;5049220;28;20183;-84
2022/02/24 02:18:45;;;;;;;17.37;2.60;;;27.60;78.10;;;;;;5050647;28;20198;-80
2022/02/24 02:21:14;;;;;;;11.73;2.57;;;27.50;78.20;;;;;;5043972;28;20198;-83
2022/02/24 02:23:41;;;;;;;14.10;6.57;;;27.80;76.70;;;;;;5051304;28;20188;-79
2022/02/24 02:26:08;;;;;;;16.47;3.97;;;27.80;76.70;;;;;;5051572;28;20171;-77
2022/02/24 02:28:36;;;;;;;15.47;3.40;;;27.70;77.00;;;;;;5047650;28;20190;-75
2022/02/24 02:31:04;;;;;;;15.13;2.80;;;27.80;75.90;;;;;;5050966;28;20685;-77
2022/02/24 02:33:32;;;;;;;12.83;2.23;;;27.80;76.20;;;;;;5051725;28;20192;-76
2022/02/24 02:35:59;;;;;;;14.37;2.73;;;27.70;76.00;;;;;;5051304;28;20194;-77
2022/02/24 02:38:26;;;;;;;9.60;2.30;;;28.00;75.80;;;;;;5051418;28;20192;-74
2022/02/24 02:40:54;;;;;;;13.93;2.80;;;28.30;73.30;;;;;;5051031;28;20291;-75
2022/02/24 02:43:21;;;;;;;10.57;2.27;;;28.50;72.30;;;;;;5051804;28;20265;-75
2022/02/24 02:45:50;;;;;;;12.17;2.97;;;29.20;72.00;;;;;;5051124;28;20192;-75
2022/02/24 02:48:18;;;;;;;13.30;2.87;;;29.40;70.20;;;;;;5046057;28;20180;-75
2022/02/24 02:50:45;;;;;;;12.27;2.73;;;29.30;71.20;;;;;;5051167;28;20215;-75
2022/02/24 02:53:13;;;;;;;9.63;2.20;;;28.90;71.30;;;;;;5051267;28;20184;-75
2022/02/24 02:55:40;;;;;;;16.27;2.93;;;29.30;70.20;;;;;;5051490;28;20187;-76
2022/02/24 02:58:07;;;;;;;10.03;2.50;;;29.80;69.80;;;;;;5051412;28;20670;-75
2022/02/24 03:00:35;;;;;;;6.90;2.03;;;30.10;67.30;;;;;;5051563;28;20270;-76
2022/02/24 03:03:02;;;;;;;9.57;2.27;;;29.80;68.50;;;;;;5051222;28;20199;-76
2022/02/24 03:05:30;;;;;;;10.93;2.20;;;29.80;66.20;;;;;;5051453;28;20706;-77
2022/02/24 03:07:57;;;;;;;8.93;2.22;;;29.80;67.50;;;;;;5051633;28;20216;-76
2022/02/24 03:10:25;;;;;;;9.52;2.28;;;30.20;66.20;;;;;;5051585;28;20235;-79
2022/02/24 03:12:52;;;;;;;11.63;2.47;;;29.90;66.50;;;;;;5051162;28;20176;-79
2022/02/24 03:15:19;;;;;;;12.70;2.53;;;29.90;67.20;;;;;;5051264;28;20237;-79
2022/02/24 03:17:48;;;;;;;10.45;2.53;;;29.80;67.20;;;;;;5051027;28;20173;-77
2022/02/24 03:20:16;;;;;;;14.00;2.83;;;29.30;67.60;;;;;;5051030;28;20676;-77
2022/02/24 03:22:45;;;;;;;12.25;2.72;;;29.40;68.50;;;;;;5051060;28;20653;-77
2022/02/24 03:25:12;;;;;;;12.77;2.55;;;29.30;67.90;;;;;;5046335;28;20190;-80
2022/02/24 03:27:40;;;;;;;9.55;2.92;;;29.20;69.40;;;;;;5049926;28;20191;-76
2022/02/24 03:30:08;;;;;;;19.10;2.83;;;29.30;70.20;;;;;;5054511;28;20199;-77
2022/02/24 03:32:36;;;;;;;11.65;2.38;;;29.40;69.30;;;;;;5051063;28;20188;-79
2022/02/24 03:35:04;;;;;;;8.07;2.20;;;29.30;70.20;;;;;;5054459;28;20187;-77
2022/02/24 03:37:31;;;;;;;13.60;2.80;;;29.20;70.30;;;;;;5054505;28;20187;-83
2022/02/24 03:39:58;;;;;;;10.70;2.40;;;28.80;70.10;;;;;;5054303;28;20188;-78
2022/02/24 03:42:26;;;;;;;13.57;2.37;;;28.50;71.40;;;;;;5052445;28;20261;-79
2022/02/24 03:44:53;;;;;;;9.30;2.10;;;28.10;71.10;;;;;;5053107;28;20256;-81
2022/02/24 03:47:22;;;;;;;10.93;2.03;;;27.40;72.60;;;;;;5053888;28;20215;-78
2022/02/24 03:49:50;;;;;;;11.07;6.13;;;27.50;72.80;;;;;;5051935;28;20278;-78
2022/02/24 03:52:19;;;;;;;10.67;4.57;;;27.50;72.70;;;;;;5052392;28;20188;-77
2022/02/24 03:54:49;;;;;;;11.50;1.87;;;27.60;72.40;;;;;;5050877;28;20540;-76
2022/02/24 03:57:17;;;;;;;9.50;1.60;;;27.70;70.40;;;;;;5051772;28;20211;-77
2022/02/24 03:59:45;;;;;;;3.50;1.00;;;27.90;69.20;;;;;;5053854;28;20191;-77
2022/02/24 04:02:13;;;;;;;3.93;1.37;;;28.00;67.10;;;;;;5047179;28;20180;-76
2022/02/24 04:04:42;;;;;;;2.90;1.03;;;28.10;66.70;;;;;;5050222;28;20230;-79
2022/02/24 04:07:10;;;;;;;5.37;1.33;;;28.00;66.20;;;;;;5050544;28;20194;-75
2022/02/24 04:09:39;;;;;;;4.93;1.20;;;27.90;66.30;;;;;;5053261;28;20282;-78
2022/02/24 04:12:07;;;;;;;8.17;1.50;;;27.80;66.70;;;;;;5053413;28;20599;-76
2022/02/24 04:14:34;;;;;;;7.77;1.17;;;27.90;66.40;;;;;;5051858;28;20250;-76
2022/02/24 04:17:02;;;;;;;9.87;1.60;;;27.70;64.90;;;;;;5051662;28;20183;-77
2022/02/24 04:19:29;;;;;;;5.83;1.40;;;27.30;67.00;;;;;;5051990;28;20178;-77
2022/02/24 04:21:56;;;;;;;5.33;1.43;;;27.60;66.90;;;;;;5046998;28;20180;-75
2022/02/24 04:24:24;;;;;;;6.43;1.20;;;27.50;68.30;;;;;;5047776;28;20699;-75
2022/02/24 04:26:51;;;;;;;6.93;1.77;;;27.10;69.10;;;;;;5052573;28;20541;-74
2022/02/24 04:29:18;;;;;;;4.80;1.23;;;27.10;68.90;;;;;;5049878;28;20187;-75
2022/02/24 04:31:46;;;;;;;7.37;1.60;;;27.30;69.10;;;;;;5052079;28;20184;-76
2022/02/24 04:34:13;;;;;;;5.60;1.50;;;27.00;70.40;;;;;;5051516;28;20226;-75
2022/02/24 04:36:40;;;;;;;6.70;1.73;;;26.90;70.80;;;;;;5053560;28;20187;-74
2022/02/24 04:39:08;;;;;;;10.53;1.97;;;26.80;71.30;;;;;;5050120;28;20237;-73
2022/02/24 04:41:35;;;;;;;11.53;1.70;;;27.00;71.70;;;;;;5053352;28;20271;-74
2022/02/24 04:44:03;;;;;;;8.80;2.03;;;26.90;72.10;;;;;;5053510;28;20226;-76
2022/02/24 04:46:31;;;;;;;8.60;1.87;;;26.90;72.40;;;;;;5047944;28;20226;-73
2022/02/24 04:49:00;;;;;;;10.20;2.13;;;26.80;73.40;;;;;;5052416;28;20610;-77
2022/02/24 04:51:27;;;;;;;7.47;1.60;;;26.60;74.00;;;;;;5051494;28;20302;-74
2022/02/24 04:53:54;;;;;;;10.07;2.07;;;26.50;75.00;;;;;;5051470;28;20272;-76
2022/02/24 04:56:22;;;;;;;7.97;2.30;;;26.60;75.60;;;;;;5052761;28;20184;-75
2022/02/24 04:58:49;;;;;;;7.30;2.00;;;26.60;75.60;;;;;;5051838;28;20279;-75
2022/02/24 05:01:17;;;;;;;11.43;2.30;;;26.50;76.20;;;;;;5052940;28;20180;-74
2022/02/24 05:03:44;;;;;;;11.27;2.17;;;26.60;76.40;;;;;;5050910;28;20207;-76
2022/02/24 05:06:12;;;;;;;12.13;2.07;;;26.60;76.30;;;;;;5050076;28;20180;-76
2022/02/24 05:08:39;;;;;;;15.33;2.20;;;26.60;77.00;;;;;;5052335;28;20241;-78
2022/02/24 05:11:06;;;;;;;11.87;2.50;;;26.80;76.30;;;;;;5052164;28;20752;-75
2022/02/24 05:13:34;;;;;;;8.60;2.10;;;26.80;76.80;;;;;;5052840;28;20172;-75
2022/02/24 05:16:01;;;;;;;10.57;2.10;;;26.80;76.80;;;;;;5052439;28;20187;-75
2022/02/24 05:18:28;;;;;;;8.70;2.20;;;27.00;76.70;;;;;;5051664;28;20187;-76
2022/02/24 05:20:56;;;;;;;9.53;2.10;;;27.00;76.50;;;;;;5051596;28;20552;-75
2022/02/24 05:23:23;;;;;;;11.10;3.03;;;27.20;76.70;;;;;;5052695;28;20575;-76
2022/02/24 05:25:50;;;;;;;10.47;2.30;;;27.10;76.80;;;;;;5051193;28;20184;-76
2022/02/24 05:28:18;;;;;;;9.83;1.60;;;26.90;77.00;;;;;;5050487;28;20270;-75
2022/02/24 05:30:48;;;;;;;12.27;2.40;;;26.90;78.00;;;;;;5052058;28;20219;-77
2022/02/24 05:33:16;;;;;;;10.80;1.60;;;26.60;77.00;;;;;;5050984;28;20266;-78
2022/02/24 05:35:43;;;;;;;13.93;2.30;;;26.70;78.00;;;;;;5050991;28;20214;-80
2022/02/24 05:38:11;;;;;;;5.63;1.70;;;26.30;80.10;;;;;;5053026;28;20188;-76
2022/02/24 05:40:38;;;;;;;11.53;2.50;;;26.10;83.70;;;;;;5051628;28;20196;-74
2022/02/24 05:43:08;;;;;;;11.60;2.10;;;25.70;86.20;;;;;;5052628;28;20646;-79
2022/02/24 05:45:35;;;;;;;6.83;2.13;;;25.60;87.70;;;;;;5052970;28;20230;-76
2022/02/24 05:48:03;;;;;;;11.27;3.00;;;25.70;87.40;;;;;;5052095;28;20232;-75
2022/02/24 05:50:30;;;;;;;9.00;2.20;;;25.70;87.60;;;;;;5048476;28;20682;-75
2022/02/24 05:53:02;;;;;;;10.60;2.10;;;25.70;86.60;;;;;;5051001;28;20262;-74
2022/02/24 05:55:34;;;;;;;8.30;1.77;;;25.50;84.10;;;;;;5047310;28;20191;-76
2022/02/24 05:58:02;;;;;;;8.70;1.40;;;25.30;84.70;;;;;;5051768;28;20238;-76
2022/02/24 06:00:30;;;;;;;6.07;1.60;;;25.30;82.80;;;;;;5051990;28;20184;-74
2022/02/24 06:02:57;;;;;;;6.10;1.43;;;25.20;84.20;;;;;;5063957;28;20275;-75
2022/02/24 06:05:24;;;;;;;5.70;1.37;;;25.10;83.90;;;;;;5048272;28;20191;-75
2022/02/24 06:07:52;;;;;;;4.50;1.07;;;25.00;82.90;;;;;;5046147;28;20215;-74
2022/02/24 06:10:19;;;;;;;5.20;1.60;;;24.90;81.90;;;;;;5050392;28;20204;-75
2022/02/24 06:12:46;;;;;;;5.87;1.23;;;24.90;82.40;;;;;;5051058;28;20218;-75
2022/02/24 06:15:14;;;;;;;3.23;1.10;;;25.00;82.20;;;;;;5049810;28;20192;-75
2022/02/24 06:17:41;;;;;;;3.37;1.10;;;25.10;82.30;;;;;;5051374;28;20175;-75
2022/02/24 06:20:09;;;;;;;5.20;1.43;;;25.00;81.40;;;;;;5050826;28;20197;-75
2022/02/24 06:22:36;;;;;;;3.20;1.07;;;25.00;82.40;;;;;;5046429;28;20180;-76
2022/02/24 06:25:04;;;;;;;5.00;1.13;;;25.00;83.00;;;;;;5049422;28;20183;-74
2022/02/24 06:27:31;;;;;;;8.47;1.30;;;24.80;83.10;;;;;;5049007;28;20785;-75
2022/02/24 06:29:59;;;;;;;6.60;1.50;;;24.80;83.90;;;;;;5050355;28;20214;-74
2022/02/24 06:32:26;;;;;;;4.00;1.20;;;24.70;84.30;;;;;;5050123;28;20182;-75
2022/02/24 06:34:54;;;;;;;6.37;1.60;;;24.70;84.70;;;;;;5051108;28;20662;-75
2022/02/24 06:37:21;;;;;;;9.80;4.43;;;24.60;85.50;;;;;;5051537;28;20180;-75
2022/02/24 06:39:49;;;;;;;8.87;1.30;;;24.60;86.00;;;;;;5051775;28;20168;-74
2022/02/24 06:42:17;;;;;;;5.40;1.87;;;24.60;86.20;;;;;;5051602;28;20270;-75
2022/02/24 06:44:44;;;;;;;7.17;1.77;;;24.70;86.60;;;;;;5052153;28;20230;-75
2022/02/24 06:47:11;;;;;;;6.57;1.90;;;24.70;86.60;;;;;;5051415;28;20299;-75
2022/02/24 06:49:41;;;;;;;6.50;1.57;;;24.70;86.90;;;;;;5045485;28;20176;-75
2022/02/24 06:52:08;;;;;;;8.07;2.13;;;24.60;86.60;;;;;;5050890;28;20277;-75
2022/02/24 06:54:36;;;;;;;10.87;5.40;;;24.70;87.20;;;;;;5051727;28;20259;-74
2022/02/24 06:57:06;;;;;;;6.83;2.13;;;24.50;86.90;;;;;;5050706;28;20179;-75
2022/02/24 06:59:34;;;;;;;12.97;2.43;;;24.50;87.50;;;;;;5050749;28;20176;-75
2022/02/24 07:02:01;;;;;;;9.93;2.13;;;24.50;87.80;;;;;;5052195;28;20199;-75
2022/02/24 07:04:29;;;;;;;9.37;2.27;;;24.50;87.90;;;;;;5055251;28;20180;-75
2022/02/24 07:06:58;;;;;;;11.07;2.50;;;24.50;88.10;;;;;;5055177;28;20186;-74
2022/02/24 07:09:27;;;;;;;10.07;2.27;;;24.50;88.30;;;;;;5053495;28;20645;-75
2022/02/24 07:11:54;;;;;;;11.10;2.70;;;24.60;88.60;;;;;;5056189;28;20253;-75
2022/02/24 07:14:22;;;;;;;17.30;2.80;;;24.50;88.40;;;;;;5054707;28;20255;-75
2022/02/24 07:16:49;;;;;;;13.07;2.60;;;24.50;88.10;;;;;;5054208;28;20271;-75
2022/02/24 07:19:17;;;;;;;9.63;2.10;;;24.50;88.50;;;;;;5055830;28;20184;-75
2022/02/24 07:21:44;;;;;;;14.50;2.87;;;24.50;88.00;;;;;;5055359;28;20176;-74
2022/02/24 07:24:12;;;;;;;10.77;2.30;;;24.40;88.10;;;;;;5056809;28;20179;-76
2022/02/24 07:26:39;;;;;;;11.50;2.50;;;24.40;88.00;;;;;;5058871;28;20176;-75
2022/02/24 07:29:06;;;;;;;8.60;2.17;;;24.40;87.70;;;;;;5056607;28;20551;-75
2022/02/24 07:31:34;;;;;;;10.17;2.40;;;24.40;87.70;;;;;;5056863;28;20199;-75
2022/02/24 07:34:04;;;;;;;10.67;2.70;;;24.40;88.00;;;;;;5066868;28;20194;-75
2022/02/24 07:36:33;;;;;;;8.07;2.30;;;24.40;88.10;;;;;;5069919;28;20237;-74
2022/02/24 07:39:00;;;;;;;11.77;2.10;;;24.40;87.70;;;;;;5067685;28;20207;-75
2022/02/24 07:41:28;;;;;;;11.67;2.40;;;24.40;88.00;;;;;;5067674;28;20176;-75
2022/02/24 07:43:55;;;;;;;12.00;2.47;;;24.40;88.00;;;;;;5055791;28;20180;-75
2022/02/24 07:46:22;;;;;;;14.37;3.20;;;24.40;87.60;;;;;;5053885;28;20223;-75
2022/02/24 07:48:52;;;;;;;10.67;2.13;;;24.50;88.10;;;;;;5052918;28;20194;-74
2022/02/24 07:51:23;;;;;;;13.20;2.43;;;24.50;88.20;;;;;;5050662;28;20223;-75
2022/02/24 07:53:50;;;;;;;11.80;2.53;;;24.50;87.80;;;;;;5054761;28;20215;-75
2022/02/24 07:56:17;;;;;;;10.83;2.23;;;24.50;87.90;;;;;;5054622;28;20184;-75
2022/02/24 07:58:45;;;;;;;12.73;2.27;;;24.50;88.20;;;;;;5054721;28;20253;-75
2022/02/24 08:01:12;;;;;;;13.53;2.37;;;24.50;87.90;;;;;;5053499;28;20286;-75
2022/02/24 08:03:40;;;;;;;10.53;2.40;;;24.60;88.20;;;;;;5054669;28;20614;-74
2022/02/24 08:06:07;;;;;;;9.70;2.30;;;24.50;88.10;;;;;;5048192;28;20184;-75
2022/02/24 08:08:34;;;;;;;13.80;2.57;;;24.50;88.50;;;;;;5053808;28;20180;-76
2022/02/24 08:11:02;;;;;;;9.77;2.83;;;24.50;89.10;;;;;;5053408;28;20658;-74
2022/02/24 08:13:30;;;;;;;16.03;2.53;;;24.30;89.10;;;;;;5050819;28;20198;-74
2022/02/24 08:15:57;;;;;;;16.17;2.33;;;24.30;88.80;;;;;;5051751;28;20192;-75
2022/02/24 08:18:24;;;;;;;12.50;2.30;;;24.30;89.10;;;;;;5054266;28;20184;-75
2022/02/24 08:20:52;;;;;;;12.70;2.73;;;24.30;89.50;;;;;;5052150;28;20183;-74
2022/02/24 08:23:19;;;;;;;12.53;3.00;;;24.30;89.80;;;;;;5053322;28;20306;-80
2022/02/24 08:25:47;;;;;;;9.77;4.07;;;24.10;90.30;;;;;;5053602;28;20666;-81
2022/02/24 08:28:14;;;;;;;14.80;4.27;;;23.70;90.50;;;;;;5051325;28;20188;-84
2022/02/24 08:30:42;;;;;;;12.83;2.60;;;23.60;90.70;;;;;;5051909;28;20283;-79
2022/02/24 08:33:09;;;;;;;8.87;1.97;;;23.50;91.40;;;;;;5050452;28;20180;-85
2022/02/24 08:35:37;;;;;;;12.53;2.10;;;23.40;91.70;;;;;;5049260;28;20526;-84
2022/02/24 08:38:05;;;;;;;15.57;3.30;;;23.30;91.90;;;;;;5052956;28;20183;-88
2022/02/24 08:40:33;;;;;;;18.20;3.60;;;23.30;92.20;;;;;;5053580;28;20527;-84
2022/02/24 08:43:01;;;;;;;15.93;3.10;;;23.30;92.20;;;;;;5050752;28;21379;-81
2022/02/24 08:45:30;;;;;;;12.87;2.70;;;23.30;92.30;;;;;;5051328;28;20278;-82
2022/02/24 08:48:00;;;;;;;13.30;2.40;;;23.30;92.30;;;;;;5050552;28;20227;-81
2022/02/24 08:50:28;;;;;;;11.80;2.37;;;23.30;92.20;;;;;;5050371;28;20258;-83
2022/02/24 08:52:59;;;;;;;10.80;2.10;;;23.30;92.30;;;;;;5048575;28;20176;-79
2022/02/24 08:55:27;;;;;;;11.37;2.57;;;23.20;92.20;;;;;;5048273;28;20191;-79
2022/02/24 08:58:01;;;;;;;5.30;1.50;;;23.20;92.20;;;;;;5050706;28;20566;-83
2022/02/24 09:00:28;;;;;;;6.30;1.60;;;23.20;91.70;;;;;;5049382;28;20187;-82
2022/02/24 09:02:59;;;;;;;8.73;1.93;;;23.20;92.10;;;;;;5048549;28;20191;-84
2022/02/24 09:05:26;;;;;;;14.87;2.10;;;23.30;92.20;;;;;;5052525;28;20180;-77
2022/02/24 09:07:54;;;;;;;8.87;2.10;;;23.30;92.40;;;;;;5050664;28;20219;-76
2022/02/24 09:10:21;;;;;;;14.87;2.70;;;23.30;92.70;;;;;;5051648;28;20564;-84
2022/02/24 09:12:49;;;;;;;9.63;2.40;;;23.30;92.80;;;;;;5050123;28;20547;-79
2022/02/24 09:15:16;;;;;;;11.83;2.40;;;23.30;92.70;;;;;;5051272;28;20184;-76
2022/02/24 09:17:43;;;;;;;10.80;2.00;;;23.30;92.70;;;;;;5051541;28;20172;-79
2022/02/24 09:20:11;;;;;;;11.00;2.30;;;23.20;92.90;;;;;;5051270;28;20229;-79
2022/02/24 09:22:38;;;;;;;13.10;2.33;;;23.20;92.90;;;;;;5050634;28;20183;-78
2022/02/24 09:25:06;;;;;;;12.90;2.13;;;23.20;92.90;;;;;;5050685;28;20178;-81
2022/02/24 09:27:36;;;;;;;8.07;1.73;;;23.20;92.90;;;;;;5049766;28;20235;-82
2022/02/24 09:30:13;;;;;;;17.07;2.43;;;23.20;92.90;;;;;;5051369;28;20199;-76
2022/02/24 09:32:42;;;;;;;7.17;1.90;;;23.20;93.00;;;;;;5053418;28;20233;-82
2022/02/24 09:35:15;;;;;;;16.37;2.17;;;23.10;93.20;;;;;;5052514;28;20207;-81
2022/02/24 09:37:45;;;;;;;10.63;2.20;;;23.10;93.40;;;;;;5048243;28;20647;-77
2022/02/24 09:40:14;;;;;;;8.73;1.67;;;23.10;93.30;;;;;;5049380;28;20192;-77
2022/02/24 09:42:45;;;;;;;11.77;1.90;;;23.00;93.20;;;;;;5052680;28;20180;-77
2022/02/24 09:45:13;;;;;;;11.20;1.73;;;23.00;93.20;;;;;;5049964;28;20618;-78
2022/02/24 09:47:41;;;;;;;8.87;1.70;;;23.00;93.30;;;;;;5051528;28;20247;-79
2022/02/24 09:50:09;;;;;;;8.07;1.60;;;23.00;93.10;;;;;;5049981;28;20211;-78
2022/02/24 09:52:39;;;;;;;9.20;2.70;;;22.90;93.20;;;;;;5050877;28;20180;-78
2022/02/24 09:55:07;;;;;;;8.97;3.97;;;22.90;93.40;;;;;;5044214;28;20171;-79
2022/02/24 09:57:35;;;;;;;11.93;4.17;;;22.90;93.40;;;;;;5052174;28;20184;-78
2022/02/24 10:00:08;;;;;;;13.20;4.57;;;22.90;93.40;;;;;;5050661;28;20180;-77
2022/02/24 10:02:36;;;;;;;10.07;2.03;;;23.00;93.60;;;;;;5051400;28;20188;-87
2022/02/24 10:05:11;;;;;;;7.93;1.70;;;23.00;93.40;;;;;;5050560;28;20176;-83
2022/02/24 10:07:43;;;;;;;8.83;1.73;;;22.90;92.80;;;;;;5048958;28;20187;-81
2022/02/24 10:10:34;;;;;;;14.73;2.20;;;22.90;92.80;;;;;;5051847;28;20254;-79
2022/02/24 10:13:09;;;;;;;15.63;2.40;;;22.80;92.70;;;;;;5051918;28;20197;-77
2022/02/24 10:15:52;;;;;;;9.17;2.20;;;22.80;92.60;;;;;;5052764;28;20184;-85
2022/02/24 10:18:24;;;;;;;11.57;2.10;;;22.80;92.90;;;;;;5048666;28;20270;-79
2022/02/24 10:20:55;;;;;;;10.70;1.77;;;22.80;93.10;;;;;;5051619;28;20183;-79
2022/02/24 10:23:32;;;;;;;12.80;2.67;;;22.80;93.10;;;;;;5052307;28;20179;-80
2022/02/24 10:26:09;;;;;;;9.13;2.17;;;22.80;93.30;;;;;;5050307;28;20202;-82
2022/02/24 10:28:47;;;;;;;12.77;2.00;;;22.80;93.50;;;;;;5047593;28;20184;-83
2022/02/24 10:31:19;;;;;;;14.00;2.50;;;22.80;93.50;;;;;;5050466;28;20215;-78
2022/02/24 10:33:52;;;;;;;16.73;2.27;;;22.80;93.60;;;;;;5052075;28;20542;-78
2022/02/24 10:36:26;;;;;;;15.20;2.50;;;22.80;93.60;;;;;;5051948;28;20183;-78
2022/02/24 10:39:13;;;;;;;17.07;2.87;;;22.80;93.70;;;;;;5051929;28;20186;-79
2022/02/24 10:41:42;;;;;;;15.07;2.43;;;22.80;93.80;;;;;;5047963;28;20176;-77
2022/02/24 10:44:27;;;;;;;12.13;3.37;;;22.80;93.70;;;;;;5046799;28;20772;-78
2022/02/24 10:47:15;;;;;;;14.30;2.57;;;22.90;93.90;;;;;;5050270;28;20215;-78
2022/02/24 10:49:49;;;;;;;16.23;2.40;;;22.80;93.70;;;;;;5051787;28;20329;-80
2022/02/24 10:52:19;;;;;;;17.80;2.67;;;22.80;93.50;;;;;;5051262;28;20192;-78
2022/02/24 10:55:00;;;;;;;14.10;2.27;;;22.80;93.20;;;;;;5051827;28;20229;-79
2022/02/24 10:57:31;;;;;;;14.57;3.03;;;22.80;93.20;;;;;;5051484;28;20179;-81
2022/02/24 11:00:00;;;;;;;16.00;2.67;;;22.70;93.20;;;;;;5051311;28;20187;-79
2022/02/24 11:02:28;;;;;;;14.63;2.90;;;22.70;93.10;;;;;;5042716;28;20182;-81
2022/02/24 11:04:56;;;;;;;10.40;1.83;;;22.70;93.30;;;;;;5048014;28;20183;-76
2022/02/24 11:07:24;;;;;;;12.47;2.40;;;22.60;93.50;;;;;;5049832;28;20661;-80
2022/02/24 11:09:57;;;;;;;11.67;2.37;;;22.60;93.60;;;;;;5050336;28;20672;-75
2022/02/24 11:12:30;;;;;;;19.83;4.60;;;22.60;94.00;;;;;;5050618;28;20213;-79
2022/02/24 11:14:58;;;;;;;21.30;13.63;;;22.50;94.20;;;;;;5050472;28;20230;-76
2022/02/24 11:17:26;;;;;;;19.23;3.30;;;22.50;94.30;;;;;;5049570;28;20707;-80
2022/02/24 11:19:55;;;;;;;16.60;2.73;;;22.50;94.30;;;;;;5049860;28;20180;-82
2022/02/24 11:22:25;;;;;;;10.00;2.50;;;22.30;94.00;;;;;;5050500;28;20263;-79
2022/02/24 11:24:55;;;;;;;16.17;2.57;;;22.10;93.60;;;;;;5048716;28;20665;-73
2022/02/24 11:27:37;;;;;;;15.57;2.80;;;22.10;93.70;;;;;;5050776;28;20191;-72
2022/02/24 11:30:29;;;;;;;15.63;2.73;;;22.00;94.10;;;;;;5050523;28;20223;-73
2022/02/24 11:32:57;;;;;;;13.80;2.90;;;22.00;94.20;;;;;;5049670;28;20583;-72
2022/02/24 11:35:28;;;;;;;21.63;3.40;;;22.00;94.40;;;;;;5051512;28;20191;-72
2022/02/24 11:38:14;;;;;;;19.93;3.60;;;22.00;94.70;;;;;;5045110;28;20190;-72
2022/02/24 11:40:41;;;;;;;23.17;4.13;;;22.00;94.80;;;;;;5051089;28;20180;-74
2022/02/24 11:43:19;;;;;;;18.00;4.13;;;22.00;94.80;;;;;;5050160;28;20179;-72
2022/02/24 11:45:55;;;;;;;30.30;13.50;;;22.00;95.10;;;;;;5049825;28;20183;-74
2022/02/24 11:48:24;;;;;;;21.80;6.97;;;22.00;95.10;;;;;;5052283;28;20545;-71
2022/02/24 11:51:00;;;;;;;29.10;4.37;;;22.00;95.10;;;;;;5053296;28;20219;-71
2022/02/24 11:53:27;;;;;;;28.97;4.33;;;22.00;95.20;;;;;;5049936;28;20183;-73
2022/02/24 11:56:03;;;;;;;26.33;3.93;;;22.00;95.30;;;;;;5054370;28;20172;-77
2022/02/24 11:58:36;;;;;;;21.77;3.83;;;22.00;95.40;;;;;;5049490;28;20171;-74
2022/02/24 12:01:27;;;;;;;19.37;4.03;;;22.00;95.30;;;;;;5053239;28;20184;-77
2022/02/24 12:03:54;;;;;;;23.00;4.23;;;22.00;95.40;;;;;;5052715;28;20183;-78
2022/02/24 12:06:42;;;;;;;21.60;3.77;;;22.00;95.50;;;;;;5053400;28;20184;-72
2022/02/24 12:09:15;;;;;;;32.23;3.67;;;22.00;95.60;;;;;;5047008;28;20180;-77
2022/02/24 12:11:48;;;;;;;28.43;4.70;;;22.00;95.60;;;;;;5052201;28;20678;-78
2022/02/24 12:14:22;;;;;;;23.60;3.50;;;22.00;95.70;;;;;;5054489;28;20175;-76
2022/02/24 12:17:04;;;;;;;27.73;4.63;;;22.00;95.70;;;;;;5044833;28;20672;-77
2022/02/24 12:19:43;;;;;;;26.23;4.53;;;22.00;95.70;;;;;;5054126;28;20179;-72
2022/02/24 12:22:39;;;;;;;26.17;4.23;;;22.10;95.80;;;;;;5053826;28;20171;-75
2022/02/24 12:25:12;;;;;;;29.50;4.80;;;22.10;95.90;;;;;;5053868;28;20687;-74
2022/02/24 12:27:44;;;;;;;18.60;4.03;;;22.10;95.90;;;;;;5047416;28;20593;-79
2022/02/24 12:30:17;;;;;;;24.07;4.27;;;22.10;96.00;;;;;;5050742;28;20295;-79
2022/02/24 12:32:51;;;;;;;21.53;3.70;;;22.10;95.90;;;;;;5053843;28;20831;-77
2022/02/24 12:35:22;;;;;;;22.60;4.80;;;22.20;95.90;;;;;;5050413;28;20199;-80
2022/02/24 12:37:51;;;;;;;28.23;4.33;;;22.20;95.80;;;;;;5053669;28;20195;-78
2022/02/24 12:40:29;;;;;;;22.53;4.30;;;22.10;95.90;;;;;;5047808;28;20705;-80
2022/02/24 12:43:00;;;;;;;25.93;3.63;;;22.10;95.90;;;;;;5052057;28;20183;-77
2022/02/24 12:45:29;;;;;;;17.90;3.40;;;22.10;95.90;;;;;;5053877;28;20246;-80
2022/02/24 12:47:58;;;;;;;20.63;4.07;;;22.10;95.90;;;;;;5053217;28;20290;-78
2022/02/24 12:50:32;;;;;;;16.57;3.87;;;22.20;96.00;;;;;;5053416;28;20203;-79